Lombardville, Illinois
Current Conditions -  °F | °C
As of 4:35 PM on Friday 28 Nov 2014 (Local Time) from KC75 Reporting Station
Clear Clear  
Wind Chill: -2°   Ceiling: Unl
Heat Index:   Visibility: 7mi
Dew Point: -2°   Wind: 8mph
Humidity: 81%   Direction: 160°SSE
Pressure: 29.95"   Gusts: NA
Location:  41.1472°N, 89.6399°W
Report Text: KC75 282235Z AUTO 16007KT 7SM CLR 01/M02 A2995 RMK AO2 T00131017
Loading
Personal Weather Stations






























Interactive Weather Map New forecast layout! Learn more

10-Day Weather Forecast

Advertisements
Track Severe Weather on mobile